createdAt,value
2023-05-21T00:00:08.491Z,76.04
2023-05-21T00:02:43.183Z,76.63
2023-05-21T00:05:15.637Z,76.84
2023-05-21T00:07:46.020Z,76.67
2023-05-21T00:10:16.702Z,76.64
2023-05-21T00:12:50.208Z,77.05
2023-05-21T00:15:22.846Z,77.54
2023-05-21T00:17:53.286Z,78.11
2023-05-21T00:20:23.660Z,78.60
2023-05-21T00:22:54.211Z,79.08
2023-05-21T00:25:24.657Z,79.64
2023-05-21T00:27:58.307Z,79.90
2023-05-21T00:30:28.738Z,80.11
2023-05-21T00:33:02.739Z,79.89
2023-05-21T00:35:33.678Z,79.97
2023-05-21T00:38:05.197Z,80.41
2023-05-21T00:40:35.906Z,80.42
2023-05-21T00:43:10.834Z,80.83
2023-05-21T00:45:41.368Z,80.47
2023-05-21T00:48:11.786Z,80.52
2023-05-21T00:50:42.757Z,80.71
2023-05-21T00:53:19.445Z,80.84
2023-05-21T00:55:50.285Z,80.84
2023-05-21T00:58:23.705Z,81.52
2023-05-21T01:00:58.850Z,81.66
2023-05-21T01:03:29.525Z,82.09
2023-05-21T01:06:00.932Z,81.98
2023-05-21T01:08:32.377Z,82.65
2023-05-21T01:11:04.209Z,82.32
2023-05-21T01:13:42.605Z,82.96
2023-05-21T01:16:14.810Z,82.97
2023-05-21T01:18:45.489Z,83.46
2023-05-21T01:21:17.598Z,83.89
2023-05-21T01:23:50.841Z,83.87
2023-05-21T01:26:22.371Z,83.88
2023-05-21T01:28:53.029Z,84.21
2023-05-21T01:31:43.222Z,84.24
2023-05-21T01:34:16.924Z,84.73
2023-05-21T01:36:59.033Z,84.52
2023-05-21T01:39:42.928Z,84.78
2023-05-21T01:42:14.388Z,84.76
2023-05-21T01:44:46.299Z,84.73
2023-05-21T01:47:17.618Z,85.16
2023-05-21T01:49:48.565Z,84.98
2023-05-21T01:52:19.452Z,85.04
2023-05-21T01:54:54.669Z,85.31
2023-05-21T01:57:25.376Z,85.35
2023-05-21T01:59:56.396Z,85.38
2023-05-21T02:02:26.868Z,85.26
2023-05-21T02:04:57.526Z,85.73
2023-05-21T02:07:29.110Z,86.22
2023-05-21T02:10:02.262Z,86.09
2023-05-21T02:12:32.844Z,86.24
2023-05-21T02:15:04.716Z,86.11
2023-05-21T02:17:36.334Z,86.29
2023-05-21T02:20:11.698Z,86.28
2023-05-21T02:22:42.317Z,86.48
2023-05-21T02:25:18.581Z,86.93
2023-05-21T02:27:54.217Z,86.81
2023-05-21T02:30:24.606Z,86.60
2023-05-21T02:32:55.072Z,86.91
2023-05-21T02:35:25.617Z,86.90
2023-05-21T02:37:59.218Z,87.69
2023-05-21T02:40:33.416Z,87.88
2023-05-21T02:43:03.754Z,88.59
2023-05-21T02:45:35.952Z,88.68
2023-05-21T02:48:07.006Z,88.58
2023-05-21T02:50:41.904Z,88.85
2023-05-21T02:53:13.325Z,88.74
2023-05-21T02:55:46.465Z,88.86
2023-05-21T02:58:17.800Z,89.02
2023-05-21T03:00:48.164Z,88.99
2023-05-21T03:03:21.506Z,88.98
2023-05-21T03:05:53.260Z,89.25
2023-05-21T03:08:25.055Z,89.63
2023-05-21T03:10:58.276Z,89.22
2023-05-21T03:13:28.681Z,89.57
2023-05-21T03:15:59.195Z,89.37
2023-05-21T03:18:29.605Z,89.35
2023-05-21T03:21:00.270Z,89.88
2023-05-21T03:23:30.678Z,89.95
2023-05-21T03:26:03.704Z,89.53
2023-05-21T03:28:34.693Z,90.03
2023-05-21T03:31:06.085Z,89.98
2023-05-21T03:33:40.091Z,90.11
2023-05-21T03:36:21.817Z,90.07
2023-05-21T03:38:52.307Z,89.90
2023-05-21T03:41:26.331Z,90.38
2023-05-21T03:44:08.844Z,90.34
2023-05-21T03:46:50.078Z,90.44
2023-05-21T03:49:40.262Z,90.34
2023-05-21T03:52:12.201Z,90.80
2023-05-21T03:54:42.785Z,90.82
2023-05-21T03:57:16.259Z,91.04
2023-05-21T03:59:47.348Z,90.92
2023-05-21T04:02:18.712Z,90.84
2023-05-21T04:04:51.844Z,90.80
2023-05-21T04:07:22.953Z,91.04
2023-05-21T04:09:53.624Z,90.72
2023-05-21T04:12:26.649Z,90.94
2023-05-21T04:14:57.057Z,91.35
2023-05-21T04:17:28.770Z,91.27
2023-05-21T04:20:00.174Z,91.46
2023-05-21T04:22:30.817Z,91.43
2023-05-21T04:25:02.526Z,91.61
2023-05-21T04:27:40.726Z,91.50
2023-05-21T04:30:13.909Z,91.83
2023-05-21T04:32:46.214Z,92.19
2023-05-21T04:35:17.759Z,92.29
2023-05-21T04:37:49.111Z,92.09
2023-05-21T04:40:24.578Z,92.66
2023-05-21T04:42:58.352Z,92.75
2023-05-21T04:45:29.637Z,92.72
2023-05-21T04:48:04.936Z,92.71
2023-05-21T04:50:35.373Z,93.06
2023-05-21T04:53:06.262Z,93.01
2023-05-21T04:55:39.993Z,92.91
2023-05-21T04:58:14.509Z,93.18
2023-05-21T05:00:51.095Z,93.70
2023-05-21T05:03:21.781Z,93.77
2023-05-21T05:05:53.107Z,93.94
2023-05-21T05:08:24.175Z,93.95
2023-05-21T05:10:54.661Z,94.11
2023-05-21T05:13:27.643Z,94.52
2023-05-21T05:15:58.084Z,94.52
2023-05-21T05:18:30.041Z,94.63
2023-05-21T05:21:00.569Z,94.99
2023-05-21T05:23:31.309Z,94.85
2023-05-21T05:26:01.692Z,94.88
2023-05-21T05:28:35.001Z,94.83
2023-05-21T05:31:05.773Z,95.11
2023-05-21T05:33:37.059Z,94.97
2023-05-21T05:36:08.641Z,95.08
2023-05-21T05:38:40.290Z,94.74
2023-05-21T05:41:10.732Z,94.89
2023-05-21T05:43:44.009Z,94.98
2023-05-21T05:46:14.637Z,94.97
2023-05-21T05:48:45.268Z,94.76
2023-05-21T05:51:17.367Z,94.54
2023-05-21T05:53:48.064Z,94.45
2023-05-21T05:56:19.229Z,94.42
2023-05-21T05:58:52.513Z,94.82
2023-05-21T06:01:24.935Z,93.73
2023-05-21T06:03:57.580Z,93.45
2023-05-21T06:06:28.066Z,93.33
2023-05-21T06:08:58.466Z,92.91
2023-05-21T06:11:29.229Z,93.29
2023-05-21T06:14:02.620Z,93.49
2023-05-21T06:16:34.211Z,92.99
2023-05-21T06:19:04.738Z,93.29
2023-05-21T06:21:35.520Z,93.37
2023-05-21T06:24:09.395Z,93.15
2023-05-21T06:26:39.902Z,92.63
2023-05-21T06:29:14.854Z,93.15
2023-05-21T06:31:46.192Z,92.63
2023-05-21T06:34:16.855Z,93.03
2023-05-21T06:36:47.740Z,92.95
2023-05-21T06:39:18.147Z,92.65
2023-05-21T06:41:48.608Z,93.13
2023-05-21T06:44:47.460Z,93.42
2023-05-21T06:47:32.734Z,93.22
2023-05-21T06:50:03.186Z,92.76
2023-05-21T06:52:34.536Z,92.80
2023-05-21T06:55:06.485Z,92.13
2023-05-21T06:57:57.027Z,92.03
2023-05-21T07:00:30.136Z,92.16
2023-05-21T07:03:00.891Z,92.81
2023-05-21T07:05:32.331Z,92.21
2023-05-21T07:08:02.679Z,91.72
2023-05-21T07:10:33.469Z,91.50
2023-05-21T07:13:03.895Z,91.12
2023-05-21T07:15:37.421Z,91.92
2023-05-21T07:18:08.100Z,92.51
2023-05-21T07:20:38.722Z,91.41
2023-05-21T07:23:10.953Z,90.64
2023-05-21T07:25:41.601Z,90.80
2023-05-21T07:28:12.135Z,91.89
2023-05-21T07:30:45.200Z,91.53
2023-05-21T07:33:20.829Z,90.41
2023-05-21T07:35:52.551Z,90.25
2023-05-21T07:38:23.025Z,90.56
2023-05-21T07:40:53.592Z,88.62
2023-05-21T07:43:24.979Z,86.95
2023-05-21T07:45:58.229Z,86.65
2023-05-21T07:48:29.916Z,87.14
2023-05-21T07:51:04.335Z,86.13
2023-05-21T07:53:35.569Z,86.17
2023-05-21T07:56:10.099Z,85.46
2023-05-21T07:58:40.807Z,84.22
2023-05-21T08:01:14.562Z,83.26
2023-05-21T08:03:45.276Z,83.20
2023-05-21T08:06:15.948Z,83.32
2023-05-21T08:08:47.085Z,83.83
2023-05-21T08:11:18.980Z,84.25
2023-05-21T08:13:49.778Z,84.30
2023-05-21T08:16:23.805Z,83.15
2023-05-21T08:18:54.622Z,82.59
2023-05-21T08:21:26.526Z,81.66
2023-05-21T08:23:57.343Z,80.91
2023-05-21T08:26:28.797Z,81.63
2023-05-21T08:28:59.539Z,81.44
2023-05-21T08:31:32.644Z,77.22
2023-05-21T08:34:03.463Z,76.19
2023-05-21T08:36:50.121Z,76.18
2023-05-21T08:39:39.165Z,75.96
2023-05-21T08:42:35.169Z,75.97
2023-05-21T08:45:10.200Z,76.87
2023-05-21T08:47:46.821Z,76.92
2023-05-21T08:50:21.258Z,76.96
2023-05-21T08:52:53.269Z,76.31
2023-05-21T08:55:24.350Z,75.73
2023-05-21T08:57:57.927Z,74.84
2023-05-21T09:00:29.347Z,75.33
2023-05-21T09:03:07.814Z,74.65
2023-05-21T09:05:42.014Z,73.11
2023-05-21T09:08:21.878Z,71.88
2023-05-21T09:11:04.672Z,72.70
2023-05-21T09:13:41.877Z,74.07
2023-05-21T09:16:18.003Z,74.19
2023-05-21T09:18:52.568Z,74.12
2023-05-21T09:21:31.586Z,74.04
2023-05-21T09:24:17.633Z,73.71
2023-05-21T09:26:48.241Z,73.79
2023-05-21T09:29:18.754Z,73.26
2023-05-21T09:31:49.336Z,73.14
2023-05-21T09:34:25.784Z,73.70
2023-05-21T09:37:01.740Z,73.57
2023-05-21T09:39:33.677Z,74.36
2023-05-21T09:42:07.064Z,73.54
2023-05-21T09:44:38.431Z,72.33
2023-05-21T09:47:09.702Z,72.01
2023-05-21T09:49:46.597Z,72.05
2023-05-21T09:52:16.938Z,71.54
2023-05-21T09:54:48.588Z,71.54
2023-05-21T09:57:19.148Z,70.60
2023-05-21T09:59:53.998Z,70.85
2023-05-21T10:02:26.704Z,69.88
2023-05-21T10:05:01.156Z,68.94
2023-05-21T10:07:32.054Z,68.22
2023-05-21T10:10:04.525Z,67.68
2023-05-21T10:12:36.396Z,69.59
2023-05-21T10:15:11.409Z,69.43
2023-05-21T10:17:43.956Z,68.49
2023-05-21T10:20:17.638Z,70.37
2023-05-21T10:22:48.444Z,69.32
2023-05-21T10:25:19.630Z,70.36
2023-05-21T10:27:51.411Z,69.81
2023-05-21T10:30:22.005Z,69.50
2023-05-21T10:32:53.269Z,67.61
2023-05-21T10:35:27.720Z,66.92
2023-05-21T10:38:00.650Z,65.68
2023-05-21T10:40:31.164Z,66.30
2023-05-21T10:43:45.155Z,64.62
2023-05-21T10:46:49.324Z,63.34
2023-05-21T10:49:41.866Z,63.09
2023-05-21T10:52:32.703Z,63.03
2023-05-21T10:55:20.576Z,63.20
2023-05-21T10:58:34.624Z,62.77
2023-05-21T11:01:06.012Z,61.66
2023-05-21T11:03:38.032Z,62.38
2023-05-21T11:06:09.283Z,62.71
2023-05-21T11:08:53.817Z,63.67
2023-05-21T11:11:48.713Z,62.16
2023-05-21T11:14:39.901Z,60.87
2023-05-21T11:17:19.197Z,59.64
2023-05-21T11:19:51.655Z,60.44
2023-05-21T11:22:26.749Z,60.40
2023-05-21T11:25:04.697Z,60.08
2023-05-21T11:27:36.886Z,60.18
2023-05-21T11:30:09.774Z,59.52
2023-05-21T11:33:04.278Z,59.05
2023-05-21T11:35:39.233Z,59.26
2023-05-21T11:38:12.815Z,57.34
2023-05-21T11:40:55.675Z,56.04
2023-05-21T11:43:26.373Z,57.18
2023-05-21T11:45:57.041Z,57.75
2023-05-21T11:48:29.934Z,58.71
2023-05-21T11:51:01.768Z,58.40
2023-05-21T11:53:33.434Z,56.85
2023-05-21T11:56:10.134Z,57.01
2023-05-21T11:58:40.569Z,56.39
2023-05-21T12:01:11.010Z,55.22
2023-05-21T12:03:41.719Z,56.48
2023-05-21T12:06:12.392Z,56.31
2023-05-21T12:08:43.314Z,55.13
2023-05-21T12:11:16.553Z,56.73
2023-05-21T12:13:47.200Z,54.43
2023-05-21T12:16:18.225Z,55.44
2023-05-21T12:18:48.855Z,54.62
2023-05-21T12:21:20.148Z,53.69
2023-05-21T12:23:50.550Z,53.05
2023-05-21T12:26:25.698Z,53.70
2023-05-21T12:28:57.626Z,53.70
2023-05-21T12:31:28.236Z,52.19
2023-05-21T12:33:58.928Z,51.25
2023-05-21T12:36:32.034Z,50.44
2023-05-21T12:39:02.681Z,49.94
2023-05-21T12:41:35.741Z,50.99
2023-05-21T12:44:08.944Z,49.99
2023-05-21T12:46:39.518Z,49.77
2023-05-21T12:49:10.016Z,50.13
2023-05-21T12:51:43.750Z,49.66
2023-05-21T12:54:17.460Z,50.72
2023-05-21T12:56:50.571Z,50.85
2023-05-21T12:59:21.007Z,49.42
2023-05-21T13:01:51.670Z,48.15
2023-05-21T13:04:23.535Z,47.65
2023-05-21T13:06:53.980Z,45.80
2023-05-21T13:09:24.769Z,43.60
2023-05-21T13:11:57.802Z,42.24
2023-05-21T13:14:28.222Z,41.83
2023-05-21T13:16:58.893Z,41.74
2023-05-21T13:19:29.786Z,41.21
2023-05-21T13:22:00.548Z,40.33
2023-05-21T13:24:31.060Z,40.90
2023-05-21T13:27:04.035Z,40.72
2023-05-21T13:29:36.003Z,40.08
2023-05-21T13:32:06.704Z,41.78
2023-05-21T13:34:37.062Z,40.71
2023-05-21T13:37:07.421Z,40.38
2023-05-21T13:39:37.830Z,39.15
2023-05-21T13:42:11.054Z,40.35
2023-05-21T13:44:41.943Z,41.04
2023-05-21T13:47:12.631Z,39.71
2023-05-21T13:49:43.262Z,39.26
2023-05-21T13:52:14.812Z,37.53
2023-05-21T13:54:46.165Z,38.55
2023-05-21T13:57:19.579Z,38.67
2023-05-21T13:59:50.757Z,37.64
2023-05-21T14:02:21.478Z,37.60
2023-05-21T14:04:51.938Z,37.97
2023-05-21T14:07:22.730Z,36.45
2023-05-21T14:09:53.233Z,36.92
2023-05-21T14:12:26.931Z,35.71
2023-05-21T14:14:57.474Z,36.72
2023-05-21T14:17:27.993Z,37.20
2023-05-21T14:19:58.659Z,37.70
2023-05-21T14:22:29.299Z,37.83
2023-05-21T14:24:59.686Z,36.45
2023-05-21T14:27:32.751Z,36.07
2023-05-21T14:30:03.310Z,35.21
2023-05-21T14:32:33.804Z,34.40
2023-05-21T14:35:04.472Z,34.13
2023-05-21T14:37:34.887Z,34.08
2023-05-21T14:40:05.661Z,33.56
2023-05-21T14:42:38.811Z,33.89
2023-05-21T14:45:18.119Z,33.50
2023-05-21T14:47:50.567Z,34.23
2023-05-21T14:50:21.893Z,35.28
2023-05-21T14:52:52.383Z,35.22
2023-05-21T14:55:22.807Z,35.92
2023-05-21T14:57:56.231Z,35.66
2023-05-21T15:00:26.771Z,36.23
2023-05-21T15:02:57.695Z,37.12
2023-05-21T15:05:31.595Z,37.72
2023-05-21T15:08:04.132Z,37.83
2023-05-21T15:10:34.483Z,37.91
2023-05-21T15:13:07.715Z,37.93
2023-05-21T15:15:39.131Z,38.22
2023-05-21T15:18:09.936Z,38.48
2023-05-21T15:20:40.406Z,38.63
2023-05-21T15:25:44.056Z,38.95
2023-05-21T15:28:17.213Z,39.39
2023-05-21T15:30:47.814Z,39.12
2023-05-21T15:33:18.153Z,39.08
2023-05-21T15:35:48.944Z,39.07
2023-05-21T15:38:19.552Z,38.37
2023-05-21T15:40:51.291Z,38.74
2023-05-21T15:43:24.350Z,37.11
2023-05-21T15:45:55.000Z,37.32
2023-05-21T15:48:25.841Z,38.29
2023-05-21T15:50:56.548Z,38.19
2023-05-21T15:53:27.107Z,38.33
2023-05-21T15:55:57.571Z,37.53
2023-05-21T15:58:31.334Z,35.85
2023-05-21T16:01:01.990Z,36.60
2023-05-21T16:03:32.451Z,37.81
2023-05-21T16:06:04.448Z,37.91
2023-05-21T16:08:35.046Z,36.14
2023-05-21T16:11:05.541Z,36.63
2023-05-21T16:13:38.777Z,37.18
2023-05-21T16:16:10.772Z,38.24
2023-05-21T16:18:41.201Z,37.44
2023-05-21T16:21:11.757Z,37.31
2023-05-21T16:23:42.330Z,37.39
2023-05-21T16:26:14.008Z,37.16
2023-05-21T16:28:47.079Z,37.48
2023-05-21T16:31:17.524Z,37.99
2023-05-21T16:33:47.941Z,38.28
2023-05-21T16:36:18.356Z,38.23
2023-05-21T16:38:48.792Z,37.69
2023-05-21T16:41:20.761Z,37.35
2023-05-21T16:43:55.246Z,38.12
2023-05-21T16:46:25.682Z,38.50
2023-05-21T16:48:56.281Z,37.77
2023-05-21T16:51:26.694Z,38.21
2023-05-21T16:53:57.428Z,37.34
2023-05-21T16:56:28.163Z,37.12
2023-05-21T16:59:01.465Z,38.40
2023-05-21T17:01:32.044Z,39.08
2023-05-21T17:04:02.684Z,38.63
2023-05-21T17:06:34.126Z,38.24
2023-05-21T17:09:04.546Z,39.42
2023-05-21T17:11:35.145Z,38.20
2023-05-21T17:14:08.235Z,37.93
2023-05-21T17:16:38.863Z,38.31
2023-05-21T17:19:09.330Z,37.73
2023-05-21T17:21:39.802Z,38.32
2023-05-21T17:24:10.540Z,38.95
2023-05-21T17:26:40.940Z,38.67
2023-05-21T17:29:13.987Z,37.95
2023-05-21T17:31:44.634Z,38.56
2023-05-21T17:34:15.201Z,38.60
2023-05-21T17:36:45.966Z,38.81
2023-05-21T17:39:16.517Z,38.69
2023-05-21T17:41:47.729Z,38.84
2023-05-21T17:44:21.844Z,39.08
2023-05-21T17:46:53.089Z,39.00
2023-05-21T17:49:23.700Z,39.82
2023-05-21T17:51:56.346Z,39.16
2023-05-21T17:54:26.838Z,39.43
2023-05-21T17:56:57.201Z,39.20
2023-05-21T17:59:30.276Z,39.37
2023-05-21T18:02:02.799Z,39.88
2023-05-21T18:04:33.279Z,39.85
2023-05-21T18:07:03.719Z,39.77
2023-05-21T18:09:34.328Z,40.14
2023-05-21T18:12:07.152Z,40.22
2023-05-21T18:14:40.300Z,39.84
2023-05-21T18:17:10.941Z,40.03
2023-05-21T18:19:41.305Z,40.30
2023-05-21T18:22:11.822Z,40.27
2023-05-21T18:24:42.292Z,39.96
2023-05-21T18:27:12.664Z,40.84
2023-05-21T18:29:47.135Z,42.33
2023-05-21T18:32:18.029Z,43.68
2023-05-21T18:34:48.664Z,45.06
2023-05-21T18:37:19.652Z,46.38
2023-05-21T18:39:50.048Z,47.08
2023-05-21T18:42:20.432Z,48.01
2023-05-21T18:44:54.541Z,48.71
2023-05-21T18:47:25.465Z,49.93
2023-05-21T18:49:55.905Z,50.15
2023-05-21T18:52:26.398Z,50.72
2023-05-21T18:54:57.567Z,51.56
2023-05-21T18:57:27.943Z,51.56
2023-05-21T19:00:00.997Z,52.31
2023-05-21T19:02:31.721Z,52.44
2023-05-21T19:05:03.011Z,52.50
2023-05-21T19:07:33.844Z,53.09
2023-05-21T19:10:04.396Z,53.71
2023-05-21T19:12:36.350Z,53.75
2023-05-21T19:15:14.034Z,53.90
2023-05-21T19:17:44.550Z,53.97
2023-05-21T19:20:26.807Z,54.61
2023-05-21T19:22:57.960Z,54.42
2023-05-21T19:25:29.066Z,54.64
2023-05-21T19:28:01.028Z,55.21
2023-05-21T19:30:36.522Z,55.16
2023-05-21T19:33:07.338Z,55.31
2023-05-21T19:35:38.042Z,55.72
2023-05-21T19:38:08.906Z,55.89
2023-05-21T19:40:39.448Z,55.98
2023-05-21T19:43:09.860Z,56.26
2023-05-21T19:45:42.854Z,56.34
2023-05-21T19:48:13.524Z,56.49
2023-05-21T19:50:44.164Z,57.20
2023-05-21T19:53:15.004Z,57.30
2023-05-21T19:55:46.125Z,57.50
2023-05-21T19:58:19.353Z,57.84
2023-05-21T20:00:54.332Z,57.81
2023-05-21T20:03:25.410Z,58.17
2023-05-21T20:05:56.308Z,58.25
2023-05-21T20:08:26.845Z,58.51
2023-05-21T20:10:57.883Z,58.43
2023-05-21T20:13:28.489Z,58.79
2023-05-21T20:16:01.747Z,59.18
2023-05-21T20:18:32.624Z,59.37
2023-05-21T20:21:06.357Z,59.65
2023-05-21T20:23:36.954Z,59.29
2023-05-21T20:26:07.452Z,59.62
2023-05-21T20:28:38.335Z,59.78
2023-05-21T20:31:12.246Z,60.05
2023-05-21T20:33:43.487Z,60.38
2023-05-21T20:36:15.470Z,60.56
2023-05-21T20:38:47.355Z,60.91
2023-05-21T20:41:17.868Z,60.68
2023-05-21T20:43:50.963Z,60.75
2023-05-21T20:46:23.999Z,60.41
2023-05-21T20:48:54.456Z,60.52
2023-05-21T20:51:24.891Z,60.92
2023-05-21T20:53:55.464Z,61.24
2023-05-21T20:56:40.841Z,61.36
2023-05-21T20:59:12.453Z,61.50
2023-05-21T21:01:45.775Z,61.35
2023-05-21T21:04:16.318Z,62.06
2023-05-21T21:06:46.802Z,62.62
2023-05-21T21:09:17.804Z,62.31
2023-05-21T21:11:48.267Z,61.76
2023-05-21T21:14:19.009Z,62.01
2023-05-21T21:16:52.027Z,61.60
2023-05-21T21:19:22.821Z,61.74
2023-05-21T21:21:54.268Z,62.04
2023-05-21T21:24:24.756Z,62.21
2023-05-21T21:26:55.445Z,62.85
2023-05-21T21:29:26.376Z,62.69
2023-05-21T21:32:00.303Z,63.05
2023-05-21T21:34:30.819Z,63.18
2023-05-21T21:37:01.521Z,62.77
2023-05-21T21:39:31.939Z,63.35
2023-05-21T21:42:02.643Z,63.86
2023-05-21T21:44:33.341Z,63.63
2023-05-21T21:47:06.562Z,64.24
2023-05-21T21:49:37.617Z,64.79
2023-05-21T21:52:09.033Z,65.07
2023-05-21T21:54:39.839Z,65.04
2023-05-21T21:57:10.336Z,64.89
2023-05-21T21:59:41.623Z,65.79
2023-05-21T22:02:14.688Z,65.99
2023-05-21T22:04:45.173Z,66.23
2023-05-21T22:07:18.089Z,67.14
2023-05-21T22:09:48.851Z,67.15
2023-05-21T22:12:19.277Z,67.67
2023-05-21T22:14:49.633Z,67.62
2023-05-21T22:17:23.588Z,67.73
2023-05-21T22:19:53.952Z,68.24
2023-05-21T22:22:26.183Z,68.48
2023-05-21T22:24:57.159Z,69.23
2023-05-21T22:27:27.973Z,69.74
2023-05-21T22:29:58.707Z,70.15
2023-05-21T22:32:31.684Z,70.70
2023-05-21T22:35:02.921Z,70.87
2023-05-21T22:37:37.477Z,71.44
2023-05-21T22:40:09.404Z,71.15
2023-05-21T22:42:40.004Z,71.82
2023-05-21T22:45:12.641Z,72.01
2023-05-21T22:47:45.898Z,72.24
2023-05-21T22:50:16.872Z,73.02
2023-05-21T22:52:47.325Z,72.68
2023-05-21T22:55:18.913Z,73.09
2023-05-21T22:57:49.718Z,73.44
2023-05-21T23:00:21.966Z,73.63
2023-05-21T23:02:55.150Z,74.14
2023-05-21T23:05:28.314Z,74.49
2023-05-21T23:08:01.854Z,74.42
2023-05-21T23:10:32.470Z,74.82
2023-05-21T23:13:02.990Z,75.19
2023-05-21T23:15:33.936Z,75.42
2023-05-21T23:18:07.960Z,75.74
2023-05-21T23:20:42.645Z,76.06
2023-05-21T23:23:13.015Z,76.48
2023-05-21T23:25:46.787Z,76.25
2023-05-21T23:28:17.962Z,76.73
2023-05-21T23:30:48.717Z,76.55
2023-05-21T23:33:21.732Z,76.83
2023-05-21T23:35:52.241Z,77.44
2023-05-21T23:38:22.799Z,77.61
2023-05-21T23:40:53.370Z,77.68
2023-05-21T23:43:23.766Z,77.86
2023-05-21T23:45:54.145Z,78.78
2023-05-21T23:48:27.164Z,79.04
2023-05-21T23:50:57.894Z,79.17
2023-05-21T23:53:28.607Z,79.18
2023-05-21T23:55:59.095Z,79.47
2023-05-21T23:58:29.568Z,79.10
